Time;durP1;ratioP1;P1;durP2;ratioP2;P2;SDS_P1;SDS_P2;PMS_P1;PMS_P2;Temp;Humidity;BMP_temperature;BMP_pressure;BME280_temperature;BME280_humidity;BME280_pressure;Samples;Min_cycle;Max_cycle;Signal;HPM_P1;HPM_P2
2022/08/12 00:42:55;;;;;;;4.50;2.10;;;17.90;99.90;;;;;;4988720;28;20616;-80
2022/08/12 00:45:22;;;;;;;2.27;2.00;;;17.90;99.90;;;;;;4994776;28;20454;-79
2022/08/12 00:47:52;;;;;;;3.37;3.07;;;18.00;99.90;;;;;;4989136;28;20447;-79
2022/08/12 00:50:21;;;;;;;4.57;2.83;;;18.10;99.90;;;;;;4983373;28;20734;-79
2022/08/12 00:52:51;;;;;;;3.20;2.03;;;18.10;99.90;;;;;;4975297;28;20449;-79
2022/08/12 00:55:19;;;;;;;2.10;2.00;;;18.10;99.90;;;;;;4984958;28;20513;-79
2022/08/12 00:57:49;;;;;;;2.57;2.37;;;18.10;99.90;;;;;;4987478;28;20757;-77
2022/08/12 01:00:23;;;;;;;3.50;2.57;;;18.10;99.90;;;;;;4991130;28;21043;-79
2022/08/12 01:02:54;;;;;;;4.43;2.97;;;18.20;99.90;;;;;;4968864;28;20443;-79
2022/08/12 01:13:46;;;;;;;3.23;2.40;;;18.50;99.90;;;;;;4976640;28;20675;-79
2022/08/12 01:16:21;;;;;;;3.53;2.37;;;18.60;99.90;;;;;;4986363;28;20510;-79
2022/08/12 01:18:51;;;;;;;6.83;2.70;;;18.60;99.90;;;;;;4986173;28;20473;-80
2022/08/12 01:21:25;;;;;;;2.53;2.33;;;18.60;99.90;;;;;;4992169;28;20452;-79
2022/08/12 01:24:25;;;;;;;2.20;2.00;;;18.60;99.90;;;;;;4986651;28;20642;-79
2022/08/12 01:26:58;;;;;;;2.87;2.37;;;18.60;99.90;;;;;;4986640;28;20432;-79
2022/08/12 01:29:28;;;;;;;2.63;2.43;;;18.60;99.90;;;;;;4977633;28;20549;-79
2022/08/12 01:32:04;;;;;;;2.47;2.27;;;18.70;99.90;;;;;;4991935;28;20444;-80
2022/08/12 01:34:35;;;;;;;2.67;2.47;;;18.70;99.90;;;;;;4986473;28;20499;-80
2022/08/12 01:37:07;;;;;;;4.27;2.47;;;18.30;99.90;;;;;;4991697;28;20444;-80
2022/08/12 01:39:47;;;;;;;3.60;2.10;;;18.30;99.90;;;;;;4978990;28;20490;-78
2022/08/12 01:42:49;;;;;;;7.07;2.57;;;18.50;99.90;;;;;;4982260;28;20435;-80
2022/08/12 01:45:23;;;;;;;3.20;2.67;;;18.70;99.90;;;;;;4991771;28;20445;-80
2022/08/12 01:48:13;;;;;;;5.80;3.10;;;18.80;99.90;;;;;;4987670;28;20443;-80
2022/08/12 01:50:46;;;;;;;3.17;2.43;;;18.80;99.90;;;;;;4978103;28;20520;-79
2022/08/12 01:53:14;;;;;;;3.10;2.10;;;18.50;99.90;;;;;;4987634;28;20444;-79
2022/08/12 01:55:46;;;;;;;2.70;2.50;;;18.20;99.90;;;;;;4993277;28;20770;-80
2022/08/12 01:59:44;;;;;;;5.67;2.70;;;17.80;99.90;;;;;;4981561;28;20453;-80
2022/08/12 02:01:22;;;;;;;8.73;2.50;;;17.70;99.90;;;;;;4977506;28;20446;-79
2022/08/12 02:14:06;;;;;;;2.00;1.80;;;17.80;99.90;;;;;;4984030;28;20467;-79
2022/08/12 02:16:50;;;;;;;4.60;2.60;;;18.00;99.90;;;;;;4981941;28;20432;-79
2022/08/12 02:19:53;;;;;;;2.37;2.17;;;17.80;99.90;;;;;;4984445;28;20502;-80
2022/08/12 02:22:30;;;;;;;3.30;2.13;;;17.70;99.90;;;;;;4988142;28;20518;-79
2022/08/12 02:25:23;;;;;;;3.67;3.07;;;17.80;99.90;;;;;;4981173;28;20443;-79
2022/08/12 02:27:53;;;;;;;2.83;2.50;;;17.80;99.90;;;;;;4974946;28;20437;-79
2022/08/12 02:30:30;;;;;;;5.00;3.00;;;17.80;99.90;;;;;;4988056;28;20448;-77
2022/08/12 02:33:09;;;;;;;3.30;2.70;;;17.70;99.90;;;;;;4970503;28;20449;-77
2022/08/12 02:35:38;;;;;;;3.43;2.40;;;17.70;99.90;;;;;;4973889;28;20699;-78
2022/08/12 02:38:09;;;;;;;3.00;2.80;;;17.50;99.90;;;;;;4975177;28;20496;-78
2022/08/12 02:40:39;;;;;;;2.90;2.70;;;17.50;99.90;;;;;;4982030;28;20465;-78
2022/08/12 02:43:18;;;;;;;3.23;2.93;;;17.50;99.90;;;;;;4983555;28;20455;-78
2022/08/12 02:46:05;;;;;;;3.20;2.90;;;17.40;99.90;;;;;;4985384;28;20443;-77
2022/08/12 02:48:44;;;;;;;3.37;2.50;;;17.40;99.90;;;;;;4976524;28;20455;-80
2022/08/12 02:51:16;;;;;;;5.80;3.37;;;17.40;99.90;;;;;;4986814;28;20478;-78
2022/08/12 02:53:44;;;;;;;3.23;3.03;;;17.50;99.90;;;;;;4981770;28;20503;-79
2022/08/12 02:56:33;;;;;;;2.80;2.60;;;17.70;99.90;;;;;;4989285;28;20503;-79
2022/08/12 02:59:00;;;;;;;3.60;3.30;;;17.80;99.90;;;;;;4987466;28;20490;-78
2022/08/12 03:01:32;;;;;;;3.60;2.80;;;17.90;99.90;;;;;;4981884;28;20426;-78
2022/08/12 03:04:06;;;;;;;3.13;2.83;;;17.90;99.90;;;;;;4987019;28;20464;-81
2022/08/12 03:06:52;;;;;;;3.10;2.67;;;17.60;99.90;;;;;;4988076;28;20659;-78
2022/08/12 03:09:22;;;;;;;3.80;3.50;;;17.50;99.90;;;;;;4972399;28;21047;-78
2022/08/12 03:12:03;;;;;;;3.50;3.20;;;17.60;99.90;;;;;;4976237;28;20509;-78
2022/08/12 03:14:34;;;;;;;3.33;3.03;;;17.60;99.90;;;;;;4989232;28;20410;-79
2022/08/12 03:17:11;;;;;;;2.63;2.47;;;17.70;99.90;;;;;;4980386;28;20745;-79
2022/08/12 03:19:38;;;;;;;3.17;2.90;;;17.80;99.90;;;;;;4991247;28;20868;-79
2022/08/12 03:22:28;;;;;;;5.23;2.97;;;17.90;99.90;;;;;;4988050;28;20459;-79
2022/08/12 03:24:57;;;;;;;3.60;3.30;;;17.80;99.90;;;;;;4984367;28;20416;-79
2022/08/12 03:27:25;;;;;;;5.93;3.47;;;17.70;99.90;;;;;;4968925;28;20627;-79
2022/08/12 03:29:55;;;;;;;3.70;2.90;;;17.80;99.90;;;;;;4984687;28;21020;-79
2022/08/12 03:32:24;;;;;;;3.43;3.10;;;17.50;99.90;;;;;;4976890;28;21074;-79
2022/08/12 03:35:06;;;;;;;4.70;3.03;;;17.30;99.90;;;;;;4975244;28;20435;-80
2022/08/12 03:37:36;;;;;;;4.43;3.10;;;17.20;99.90;;;;;;4978837;28;20455;-80
2022/08/12 03:40:03;;;;;;;3.40;3.10;;;17.20;99.90;;;;;;4987533;28;20476;-80
2022/08/12 03:42:39;;;;;;;4.80;2.70;;;17.10;99.90;;;;;;4979513;28;20463;-80
2022/08/12 04:02:16;;;;;;;2.63;2.43;;;17.00;99.90;;;;;;4980223;28;20511;-78
2022/08/12 04:04:46;;;;;;;4.03;2.83;;;17.10;99.90;;;;;;4986719;28;20471;-75
2022/08/12 04:07:15;;;;;;;5.37;3.80;;;17.20;99.90;;;;;;4979005;28;20599;-77
2022/08/12 04:09:45;;;;;;;4.13;3.73;;;17.40;99.90;;;;;;4976341;28;20444;-78
2022/08/12 04:15:00;;;;;;;4.90;3.23;;;17.40;99.90;;;;;;4971726;28;20530;-77
2022/08/12 04:17:27;;;;;;;3.20;2.83;;;17.50;99.90;;;;;;4964540;28;20459;-78
2022/08/12 04:19:56;;;;;;;2.97;2.77;;;17.70;99.90;;;;;;4971175;28;20491;-78
2022/08/12 04:22:28;;;;;;;5.43;2.93;;;17.80;99.90;;;;;;4977094;28;20491;-78
2022/08/12 04:24:59;;;;;;;2.03;1.83;;;17.90;99.90;;;;;;4978811;28;20432;-77
2022/08/12 04:27:30;;;;;;;2.87;2.57;;;17.90;99.90;;;;;;4979280;28;20423;-76
2022/08/12 04:29:58;;;;;;;2.53;2.27;;;17.80;99.90;;;;;;4973964;28;20512;-76
2022/08/12 04:32:48;;;;;;;2.50;2.30;;;17.90;99.90;;;;;;4976113;28;20444;-76
2022/08/12 04:35:16;;;;;;;2.70;2.20;;;18.00;99.90;;;;;;4972020;28;20443;-76
2022/08/12 04:37:45;;;;;;;2.50;2.30;;;18.10;99.90;;;;;;4978715;28;20449;-79
2022/08/12 04:40:28;;;;;;;2.53;2.33;;;18.20;99.90;;;;;;4971459;28;20488;-78
2022/08/12 04:42:59;;;;;;;5.00;4.07;;;18.40;99.90;;;;;;4973637;28;20540;-77
2022/08/12 04:45:27;;;;;;;3.00;2.10;;;18.50;99.90;;;;;;4978685;28;20539;-78
2022/08/12 04:47:55;;;;;;;1.90;1.70;;;18.60;99.90;;;;;;4980273;28;20458;-77
2022/08/12 04:50:27;;;;;;;2.30;2.20;;;18.60;99.90;;;;;;4982087;28;20548;-78
2022/08/12 04:53:06;;;;;;;3.37;3.07;;;18.60;99.90;;;;;;4979810;28;20540;-78
2022/08/12 04:55:35;;;;;;;2.10;2.00;;;18.70;99.90;;;;;;4980410;28;20446;-79
2022/08/12 04:58:03;;;;;;;1.97;1.87;;;18.70;99.90;;;;;;4981540;28;20501;-77
2022/08/12 05:00:32;;;;;;;3.60;2.40;;;18.70;99.90;;;;;;4984602;28;20485;-80
2022/08/12 05:03:00;;;;;;;2.77;2.17;;;18.50;99.90;;;;;;4977370;28;20420;-76
2022/08/12 05:05:29;;;;;;;8.73;2.30;;;18.30;99.90;;;;;;4975252;28;20419;-79
2022/08/12 05:08:01;;;;;;;2.53;2.33;;;18.30;99.90;;;;;;4974660;28;20412;-78
2022/08/12 05:10:29;;;;;;;3.23;2.30;;;18.20;99.90;;;;;;4976128;28;20444;-77
2022/08/12 05:13:04;;;;;;;2.77;2.57;;;18.30;99.90;;;;;;4974642;28;20427;-81
2022/08/12 05:15:31;;;;;;;2.90;2.70;;;18.40;99.90;;;;;;4969695;28;20419;-79
2022/08/12 05:18:02;;;;;;;2.77;2.57;;;18.50;99.90;;;;;;4973534;28;20450;-77
2022/08/12 05:20:47;;;;;;;3.13;2.50;;;18.90;99.90;;;;;;4979035;28;20546;-79
2022/08/12 05:23:21;;;;;;;3.67;2.70;;;19.20;99.90;;;;;;4973143;28;20416;-77
2022/08/12 05:25:49;;;;;;;3.00;2.80;;;19.20;99.90;;;;;;4971136;28;20492;-77
2022/08/12 05:28:17;;;;;;;2.50;2.30;;;19.40;99.90;;;;;;4977623;28;20433;-78
2022/08/12 05:30:45;;;;;;;2.27;2.17;;;19.30;99.90;;;;;;4974104;28;20490;-81
2022/08/12 05:33:14;;;;;;;4.30;2.60;;;19.30;99.90;;;;;;4976994;28;20422;-80
2022/08/12 05:35:43;;;;;;;2.80;2.43;;;19.30;99.90;;;;;;4967164;28;20456;-78
2022/08/12 05:41:03;;;;;;;2.13;2.00;;;19.50;99.90;;;;;;4971929;28;20483;-80
2022/08/12 05:43:32;;;;;;;2.97;2.77;;;19.60;99.90;;;;;;4974807;28;20449;-80
2022/08/12 05:45:59;;;;;;;3.20;2.03;;;19.60;99.90;;;;;;4977021;28;20465;-79
2022/08/12 05:48:27;;;;;;;1.97;1.77;;;19.80;99.90;;;;;;4975529;28;20458;-77
2022/08/12 05:50:55;;;;;;;3.53;1.97;;;19.90;99.90;;;;;;4977949;28;20419;-80
2022/08/12 05:53:22;;;;;;;2.87;2.60;;;20.10;99.90;;;;;;4972533;28;20738;-78
2022/08/12 05:55:52;;;;;;;2.43;2.23;;;20.20;99.90;;;;;;4974596;28;20424;-80
2022/08/12 05:58:20;;;;;;;3.60;2.13;;;20.40;99.90;;;;;;4975667;28;20798;-80
2022/08/12 06:00:47;;;;;;;2.13;2.00;;;20.40;99.90;;;;;;4977661;28;20459;-79
2022/08/12 06:03:16;;;;;;;3.13;1.70;;;20.70;99.90;;;;;;4974619;28;20488;-77
2022/08/12 06:05:48;;;;;;;2.60;2.30;;;20.80;99.90;;;;;;4977224;28;20463;-79
2022/08/12 06:08:23;;;;;;;5.70;1.77;;;21.10;99.90;;;;;;4972083;28;20425;-78
2022/08/12 06:10:50;;;;;;;2.80;2.20;;;21.20;99.90;;;;;;4973671;28;20412;-79
2022/08/12 06:13:17;;;;;;;4.63;2.53;;;21.20;99.90;;;;;;4970438;28;20730;-76
2022/08/12 06:16:06;;;;;;;1.97;1.87;;;21.20;99.90;;;;;;4966343;28;20439;-77
2022/08/12 06:18:33;;;;;;;2.70;2.27;;;21.20;99.90;;;;;;4976931;28;20470;-78
2022/08/12 06:21:01;;;;;;;3.33;3.13;;;21.40;99.90;;;;;;4974920;28;20490;-77
2022/08/12 06:23:28;;;;;;;12.50;2.77;;;21.80;99.90;;;;;;4968973;28;20486;-79
2022/08/12 06:25:56;;;;;;;5.70;2.63;;;22.00;99.90;;;;;;4974733;28;20430;-78
2022/08/12 06:28:24;;;;;;;2.50;2.30;;;22.20;99.90;;;;;;4976429;28;20455;-77
2022/08/12 06:30:52;;;;;;;3.07;2.43;;;22.60;99.90;;;;;;4976869;28;20423;-77
2022/08/12 06:33:43;;;;;;;2.17;2.07;;;22.40;99.90;;;;;;4975235;28;20454;-79
2022/08/12 06:36:24;;;;;;;9.13;1.90;;;22.20;99.90;;;;;;4975176;28;20438;-78
2022/08/12 06:38:56;;;;;;;4.80;2.10;;;22.30;99.90;;;;;;4974711;28;20466;-78
2022/08/12 06:44:28;;;;;;;2.37;2.17;;;22.40;99.90;;;;;;4973848;28;20518;-78
2022/08/12 06:46:56;;;;;;;2.00;1.90;;;23.10;99.90;;;;;;4975467;28;20750;-76
2022/08/12 06:49:24;;;;;;;7.30;2.60;;;23.70;99.90;;;;;;4975711;28;20507;-76
2022/08/12 06:51:54;;;;;;;2.63;2.30;;;24.40;99.90;;;;;;4976487;28;20444;-76
2022/08/12 06:54:24;;;;;;;2.57;2.00;;;24.30;99.90;;;;;;4975957;28;20486;-77
2022/08/12 06:56:58;;;;;;;2.40;2.20;;;24.50;99.90;;;;;;4969829;28;20446;-77
2022/08/12 06:59:34;;;;;;;2.97;2.00;;;24.80;99.90;;;;;;4972645;28;20438;-77
2022/08/12 07:02:01;;;;;;;2.80;2.47;;;24.80;99.90;;;;;;4972296;28;20759;-78
2022/08/12 07:04:28;;;;;;;2.03;1.90;;;25.50;99.90;;;;;;4973416;28;20446;-77
2022/08/12 07:07:07;;;;;;;2.27;2.07;;;25.40;99.90;;;;;;4976008;28;20445;-78
2022/08/12 07:09:36;;;;;;;2.40;2.13;;;25.30;99.90;;;;;;4973527;28;20441;-80
2022/08/12 07:12:23;;;;;;;2.20;2.00;;;26.30;99.90;;;;;;4975701;28;20448;-78
2022/08/12 07:15:01;;;;;;;4.37;2.47;;;27.40;99.90;;;;;;4968860;28;20451;-78
2022/08/12 07:17:34;;;;;;;3.47;1.70;;;28.60;99.90;;;;;;4975646;28;20452;-77
2022/08/12 07:20:08;;;;;;;2.30;1.93;;;29.50;99.90;;;;;;4970470;28;20523;-78
2022/08/12 07:22:56;;;;;;;3.57;2.13;;;27.90;99.90;;;;;;4971045;28;20562;-76
2022/08/12 07:25:30;;;;;;;3.23;2.17;;;27.20;99.90;;;;;;4968683;28;20444;-77
2022/08/12 07:28:17;;;;;;;3.17;2.93;;;27.70;99.90;;;;;;4975160;28;20449;-78
2022/08/12 07:30:48;;;;;;;1.70;1.60;;;27.30;99.90;;;;;;4966277;28;20463;-78
2022/08/12 07:33:16;;;;;;;2.00;1.90;;;27.40;99.90;;;;;;4969561;28;20516;-77
2022/08/12 07:35:44;;;;;;;2.10;1.63;;;27.20;99.90;;;;;;4971986;28;20451;-77
2022/08/12 07:38:32;;;;;;;1.63;1.53;;;28.90;99.90;;;;;;4972156;28;20500;-77
2022/08/12 07:41:07;;;;;;;2.00;1.90;;;30.30;99.90;;;;;;4964422;28;20511;-77
2022/08/12 07:43:45;;;;;;;2.00;1.90;;;29.90;99.90;;;;;;4973678;28;20466;-78
2022/08/12 07:46:19;;;;;;;1.60;1.50;;;30.40;99.90;;;;;;4969994;28;20803;-78
2022/08/12 07:48:52;;;;;;;2.03;1.90;;;29.90;99.90;;;;;;4973654;28;20440;-77
2022/08/12 07:51:22;;;;;;;2.60;2.30;;;31.50;99.20;;;;;;4979835;28;20937;-77
2022/08/12 07:53:52;;;;;;;2.00;1.73;;;31.10;99.90;;;;;;4972996;28;20443;-77
2022/08/12 07:56:27;;;;;;;2.63;2.03;;;33.40;96.50;;;;;;4973984;28;20518;-77
2022/08/12 07:59:01;;;;;;;2.20;2.10;;;33.70;94.60;;;;;;4972194;28;20456;-76
2022/08/12 08:01:29;;;;;;;2.00;1.80;;;34.30;92.50;;;;;;4966031;28;20564;-78
2022/08/12 08:06:46;;;;;;;2.00;1.90;;;34.00;91.20;;;;;;4977320;28;20464;-78
2022/08/12 08:09:15;;;;;;;2.37;2.17;;;32.40;92.60;;;;;;4977671;28;20793;-76
2022/08/12 08:14:30;;;;;;;2.10;1.90;;;32.20;92.90;;;;;;4980227;28;20507;-77
2022/08/12 08:17:02;;;;;;;1.90;1.80;;;34.30;89.70;;;;;;4973599;28;20495;-78
2022/08/12 08:19:32;;;;;;;2.17;1.97;;;35.60;85.00;;;;;;4973954;28;20441;-78
2022/08/12 08:22:19;;;;;;;2.20;2.10;;;34.80;83.70;;;;;;4975734;28;20455;-78
2022/08/12 08:25:07;;;;;;;2.10;1.90;;;34.00;87.00;;;;;;4971437;28;20440;-77
2022/08/12 08:27:53;;;;;;;2.40;2.20;;;34.40;84.40;;;;;;4978666;28;20424;-77
2022/08/12 08:30:21;;;;;;;1.80;1.70;;;35.00;81.80;;;;;;4976282;28;20444;-77
2022/08/12 08:32:48;;;;;;;2.50;1.87;;;36.70;77.40;;;;;;4974698;28;20603;-78
2022/08/12 08:35:15;;;;;;;2.20;2.10;;;36.50;75.50;;;;;;4971009;28;20444;-77
2022/08/12 08:37:45;;;;;;;4.00;1.57;;;35.40;74.80;;;;;;4977022;28;20448;-80
2022/08/12 08:42:59;;;;;;;1.90;1.80;;;36.10;73.00;;;;;;4972683;28;20441;-77
2022/08/12 08:45:27;;;;;;;2.20;2.10;;;36.50;72.30;;;;;;4978105;28;20885;-77
2022/08/12 08:47:54;;;;;;;2.30;2.20;;;37.10;69.60;;;;;;4974426;28;20503;-79
2022/08/12 08:50:26;;;;;;;1.63;1.53;;;38.30;66.70;;;;;;4978711;28;20633;-78
2022/08/12 08:52:53;;;;;;;2.50;2.00;;;39.30;64.40;;;;;;4972292;28;20512;-78
2022/08/12 08:55:21;;;;;;;1.80;1.70;;;38.90;62.50;;;;;;4977697;28;20420;-76
2022/08/12 08:58:09;;;;;;;1.60;1.50;;;38.10;64.40;;;;;;4984608;28;20739;-78
2022/08/12 09:00:39;;;;;;;2.10;1.90;;;37.50;64.80;;;;;;4990683;28;20527;-79
2022/08/12 09:03:13;;;;;;;2.63;1.93;;;39.40;61.20;;;;;;4989996;28;20436;-78
2022/08/12 09:06:03;;;;;;;2.53;2.10;;;39.40;59.60;;;;;;4980871;28;20449;-77
2022/08/12 09:08:32;;;;;;;1.70;1.60;;;39.40;57.30;;;;;;4969365;29;20480;-79
2022/08/12 09:13:26;;;;;;;2.10;2.00;;;38.30;59.50;;;;;;4972890;28;20499;-77
2022/08/12 09:14:09;;;;;;;1.77;1.67;;;38.90;57.90;;;;;;4980467;28;20647;-78
2022/08/12 09:16:44;;;;;;;2.43;2.10;;;35.70;61.40;;;;;;4985791;28;20451;-77
2022/08/12 09:19:16;;;;;;;2.43;2.00;;;33.10;68.00;;;;;;4983199;28;20810;-77
2022/08/12 09:21:53;;;;;;;3.67;1.80;;;31.70;73.10;;;;;;4980168;28;20491;-79
2022/08/12 09:24:21;;;;;;;2.03;1.93;;;32.30;72.80;;;;;;4972348;28;20441;-77
2022/08/12 09:26:48;;;;;;;3.70;2.20;;;32.10;73.10;;;;;;4975326;28;20509;-77
2022/08/12 09:29:20;;;;;;;2.03;1.93;;;31.90;73.30;;;;;;4971060;28;20496;-79
2022/08/12 09:32:08;;;;;;;2.70;2.40;;;32.80;72.00;;;;;;4970828;28;20624;-76
2022/08/12 09:34:56;;;;;;;2.13;1.93;;;30.90;76.80;;;;;;4968584;28;20769;-77
2022/08/12 09:37:25;;;;;;;4.50;1.77;;;29.30;81.50;;;;;;4975760;28;20696;-77
2022/08/12 09:39:52;;;;;;;2.17;2.00;;;29.10;83.60;;;;;;4974468;28;20455;-76
2022/08/12 09:45:47;;;;;;;2.07;1.97;;;28.10;89.60;;;;;;4970854;28;20485;-76
2022/08/12 09:48:34;;;;;;;3.10;2.90;;;27.70;90.70;;;;;;4973644;28;20419;-77
2022/08/12 09:51:07;;;;;;;2.50;2.27;;;27.20;91.50;;;;;;4977015;28;20448;-77
2022/08/12 09:53:49;;;;;;;3.87;2.20;;;26.80;93.30;;;;;;4974818;28;20443;-78
2022/08/12 09:56:38;;;;;;;2.03;1.93;;;26.80;93.90;;;;;;4975834;28;20447;-77
2022/08/12 09:59:25;;;;;;;4.67;2.10;;;26.60;94.90;;;;;;4977424;28;20435;-77
2022/08/12 10:02:12;;;;;;;2.13;1.80;;;26.70;95.00;;;;;;4977151;28;21034;-76
2022/08/12 10:04:59;;;;;;;2.03;1.93;;;26.70;94.90;;;;;;4974405;28;20439;-76
2022/08/12 10:07:29;;;;;;;1.97;1.87;;;27.20;95.20;;;;;;4971232;28;20452;-77
2022/08/12 10:10:08;;;;;;;2.27;1.83;;;27.30;94.90;;;;;;4969055;28;20778;-77
2022/08/12 10:15:44;;;;;;;2.57;2.30;;;28.00;94.30;;;;;;4967297;28;20426;-78
2022/08/12 10:18:31;;;;;;;2.67;2.47;;;27.60;94.70;;;;;;4958458;28;20452;-77
2022/08/12 10:21:08;;;;;;;2.10;2.00;;;27.50;95.10;;;;;;4965279;28;20500;-79
2022/08/12 10:23:40;;;;;;;2.30;2.10;;;27.60;95.50;;;;;;4962497;28;20529;-76
2022/08/12 10:32:22;;;;;;;6.30;3.03;;;26.10;98.30;;;;;;4972076;28;20461;-77
2022/08/12 10:35:09;;;;;;;2.40;2.20;;;26.50;98.50;;;;;;4961197;28;20419;-77
2022/08/12 10:37:37;;;;;;;2.00;1.90;;;26.00;98.90;;;;;;4956899;28;20507;-77
2022/08/12 10:40:24;;;;;;;4.63;2.67;;;25.80;99.90;;;;;;4964676;28;20425;-77
2022/08/12 10:45:47;;;;;;;2.50;2.30;;;26.20;99.50;;;;;;4964565;28;20839;-78
2022/08/12 10:48:19;;;;;;;2.53;2.30;;;26.20;99.90;;;;;;4965422;28;20425;-76
2022/08/12 10:51:03;;;;;;;4.30;2.20;;;26.50;99.40;;;;;;4964599;28;20438;-76
2022/08/12 10:53:55;;;;;;;2.53;2.33;;;27.00;99.10;;;;;;4965179;28;20410;-77
2022/08/12 10:56:27;;;;;;;2.63;2.43;;;27.10;98.00;;;;;;4961243;28;20497;-77
2022/08/12 10:59:00;;;;;;;3.37;1.93;;;27.00;98.00;;;;;;4964608;28;20414;-77
2022/08/12 11:01:30;;;;;;;3.00;2.80;;;27.20;98.30;;;;;;4965825;28;20487;-77
2022/08/12 11:04:17;;;;;;;3.10;2.40;;;27.70;96.90;;;;;;4974519;28;20436;-77
2022/08/12 11:07:05;;;;;;;3.10;2.90;;;27.80;97.20;;;;;;4969066;28;20459;-79
2022/08/12 11:09:52;;;;;;;2.10;2.00;;;27.70;97.70;;;;;;4973912;28;20622;-75
2022/08/12 11:12:29;;;;;;;2.47;2.27;;;27.80;97.40;;;;;;4982417;28;20494;-77
2022/08/12 11:15:19;;;;;;;1.80;1.70;;;27.70;96.50;;;;;;4973693;28;20465;-76
2022/08/12 11:17:59;;;;;;;1.93;1.83;;;28.00;95.50;;;;;;4972014;28;20413;-78
2022/08/12 11:20:29;;;;;;;2.03;1.93;;;28.30;96.20;;;;;;4970663;28;20589;-78
2022/08/12 11:22:58;;;;;;;3.50;2.33;;;28.30;95.80;;;;;;4979852;28;20408;-78
2022/08/12 11:25:30;;;;;;;2.70;2.50;;;28.50;96.10;;;;;;4968703;28;20528;-76
2022/08/12 11:28:17;;;;;;;2.30;2.10;;;28.50;95.70;;;;;;4973502;28;20459;-79
2022/08/12 11:31:00;;;;;;;2.57;1.80;;;28.20;95.70;;;;;;4968433;28;20802;-78
2022/08/12 11:33:28;;;;;;;3.73;3.47;;;27.50;97.30;;;;;;4971321;28;20679;-79
2022/08/12 11:36:21;;;;;;;3.10;2.90;;;27.30;97.40;;;;;;4971148;28;20497;-76
2022/08/12 11:38:49;;;;;;;2.40;2.20;;;27.50;98.20;;;;;;4971731;28;20536;-77
2022/08/12 11:41:18;;;;;;;3.00;2.80;;;27.60;96.80;;;;;;4972482;28;20689;-77
2022/08/12 11:44:01;;;;;;;3.47;2.23;;;27.50;97.00;;;;;;4975913;28;20426;-79
2022/08/12 11:46:49;;;;;;;4.43;2.30;;;27.30;97.60;;;;;;4987596;28;20419;-77
2022/08/12 11:49:20;;;;;;;1.93;1.83;;;27.60;97.40;;;;;;4977092;28;20457;-77
2022/08/12 11:52:00;;;;;;;4.60;2.43;;;27.30;95.90;;;;;;4980008;28;20760;-78
2022/08/12 11:54:26;;;;;;;1.90;1.80;;;27.50;95.60;;;;;;4977673;28;20645;-77
2022/08/12 11:56:59;;;;;;;2.97;2.77;;;27.60;95.70;;;;;;4978743;28;20458;-78
2022/08/12 11:59:30;;;;;;;3.67;2.67;;;27.80;95.70;;;;;;4973414;28;20445;-77
2022/08/12 12:02:17;;;;;;;2.43;2.23;;;28.40;94.90;;;;;;4974369;28;20830;-76
2022/08/12 12:04:48;;;;;;;2.60;2.13;;;28.50;94.40;;;;;;4980207;28;20704;-77
2022/08/12 12:07:22;;;;;;;2.27;2.07;;;28.30;94.70;;;;;;4980630;28;20476;-76
2022/08/12 12:10:11;;;;;;;2.20;1.87;;;28.40;95.20;;;;;;4982141;28;20416;-77
2022/08/12 12:12:37;;;;;;;2.63;2.43;;;28.70;95.10;;;;;;4979484;28;20487;-77
2022/08/12 12:15:15;;;;;;;2.10;2.00;;;28.30;94.90;;;;;;4975595;28;20411;-78
2022/08/12 12:17:51;;;;;;;1.80;1.70;;;27.90;95.50;;;;;;4981592;28;20471;-78
2022/08/12 12:20:22;;;;;;;2.10;1.90;;;27.70;95.60;;;;;;4981443;28;20440;-79
2022/08/12 12:22:53;;;;;;;2.20;2.07;;;27.60;95.70;;;;;;4974752;28;20464;-77
2022/08/12 12:25:20;;;;;;;5.60;2.67;;;27.80;95.60;;;;;;4971793;28;20497;-77
2022/08/12 12:28:07;;;;;;;2.30;2.10;;;28.00;94.60;;;;;;4974209;28;20451;-78
2022/08/12 12:30:54;;;;;;;2.80;2.60;;;27.80;95.00;;;;;;4975236;28;20494;-77
2022/08/12 12:33:21;;;;;;;2.37;2.20;;;27.60;95.40;;;;;;4977843;28;20448;-79
2022/08/12 12:35:48;;;;;;;1.90;1.80;;;27.50;95.10;;;;;;4966086;28;20464;-78
2022/08/12 12:38:35;;;;;;;2.13;2.03;;;27.40;96.10;;;;;;4974033;28;20494;-78
2022/08/12 12:41:04;;;;;;;2.07;1.97;;;27.40;95.80;;;;;;4970618;28;20534;-77
2022/08/12 12:43:42;;;;;;;2.80;2.60;;;27.20;95.80;;;;;;4975062;28;20447;-76
2022/08/12 12:46:29;;;;;;;2.23;2.03;;;27.20;95.90;;;;;;4971049;28;20532;-78
2022/08/12 12:48:56;;;;;;;5.87;2.53;;;27.20;96.40;;;;;;4963953;28;20443;-79
2022/08/12 12:51:23;;;;;;;2.00;1.90;;;27.40;95.60;;;;;;4961363;28;20461;-79
2022/08/12 12:54:10;;;;;;;2.70;2.20;;;27.80;95.40;;;;;;4977522;28;20448;-77
2022/08/12 12:56:41;;;;;;;2.50;2.20;;;28.20;94.50;;;;;;4978639;28;20648;-77
2022/08/12 12:59:09;;;;;;;2.10;2.00;;;28.60;94.40;;;;;;4965641;28;20682;-78
2022/08/12 13:02:05;;;;;;;3.63;2.63;;;28.40;95.00;;;;;;4978552;28;20483;-79
2022/08/12 13:04:34;;;;;;;2.20;2.10;;;28.50;95.10;;;;;;4978630;28;20462;-78
2022/08/12 13:07:03;;;;;;;3.20;2.80;;;27.80;94.30;;;;;;4979612;28;20441;-77
2022/08/12 13:09:33;;;;;;;2.33;2.23;;;27.60;95.10;;;;;;4971623;28;20512;-78
2022/08/12 13:12:03;;;;;;;2.27;2.17;;;27.70;95.00;;;;;;4975225;28;20684;-78
2022/08/12 13:14:33;;;;;;;3.33;2.80;;;27.70;95.30;;;;;;4977837;28;20458;-80
2022/08/12 13:17:05;;;;;;;2.30;2.10;;;27.70;94.60;;;;;;4962194;28;20777;-76
2022/08/12 13:19:35;;;;;;;3.30;2.30;;;27.30;94.60;;;;;;4971027;28;20440;-78
2022/08/12 13:22:16;;;;;;;2.00;1.90;;;27.00;95.40;;;;;;4971856;28;20507;-79
2022/08/12 13:24:45;;;;;;;2.30;2.20;;;27.00;95.60;;;;;;4971687;28;20440;-77
2022/08/12 13:27:19;;;;;;;2.90;2.70;;;27.40;95.60;;;;;;4974056;28;20442;-78
2022/08/12 13:29:46;;;;;;;2.47;2.27;;;27.80;94.80;;;;;;4971916;28;20456;-77
2022/08/12 13:32:14;;;;;;;2.57;2.37;;;27.90;94.80;;;;;;4976751;28;20452;-77
2022/08/12 13:35:03;;;;;;;2.33;2.13;;;27.80;95.00;;;;;;4977854;28;20441;-78
2022/08/12 13:37:54;;;;;;;2.20;2.00;;;27.60;94.90;;;;;;4969634;28;21047;-77
2022/08/12 13:40:39;;;;;;;3.90;2.90;;;27.40;95.20;;;;;;4977664;28;20463;-79
2022/08/12 13:43:06;;;;;;;2.30;2.20;;;27.40;94.20;;;;;;4972402;28;20490;-77
2022/08/12 13:45:39;;;;;;;2.50;2.40;;;27.40;94.50;;;;;;4977550;28;20984;-76
2022/08/12 13:48:07;;;;;;;2.40;2.20;;;27.60;95.00;;;;;;4971480;28;20424;-78
2022/08/12 13:50:36;;;;;;;2.37;2.17;;;27.60;95.40;;;;;;4973373;28;20607;-77
2022/08/12 13:53:10;;;;;;;3.00;2.30;;;27.70;95.70;;;;;;4973803;28;20491;-77
2022/08/12 13:55:55;;;;;;;2.40;2.30;;;27.80;95.60;;;;;;4977033;28;20531;-78
2022/08/12 13:58:28;;;;;;;2.97;2.33;;;27.60;95.60;;;;;;4979136;28;20423;-77
2022/08/12 14:01:04;;;;;;;2.30;2.20;;;27.40;96.10;;;;;;4972804;28;20446;-79
2022/08/12 14:03:36;;;;;;;3.27;3.07;;;27.50;95.10;;;;;;4976439;28;20439;-77
2022/08/12 14:06:18;;;;;;;2.30;2.20;;;27.60;94.60;;;;;;4977445;28;20621;-79
2022/08/12 14:08:47;;;;;;;2.90;2.60;;;27.50;94.60;;;;;;4982920;28;20448;-77
2022/08/12 14:11:17;;;;;;;2.77;2.60;;;27.50;94.70;;;;;;4988327;28;20498;-78
2022/08/12 14:13:44;;;;;;;2.80;2.60;;;27.50;95.40;;;;;;4982726;28;20412;-79
2022/08/12 14:16:33;;;;;;;2.47;2.37;;;27.50;95.30;;;;;;4983411;28;20483;-78
2022/08/12 14:19:16;;;;;;;2.90;2.63;;;27.50;94.80;;;;;;4979069;28;20491;-77
2022/08/12 14:21:50;;;;;;;2.93;2.73;;;27.50;95.00;;;;;;4972287;28;20462;-77
2022/08/12 14:24:26;;;;;;;2.80;2.60;;;27.30;94.50;;;;;;4974303;28;20442;-77
2022/08/12 14:26:56;;;;;;;2.33;2.13;;;27.20;94.50;;;;;;4964067;28;20586;-78
2022/08/12 14:29:25;;;;;;;3.10;2.90;;;27.10;94.30;;;;;;4975103;28;20446;-77
2022/08/12 14:32:12;;;;;;;2.20;2.10;;;27.00;94.60;;;;;;4975931;28;20402;-76
2022/08/12 14:34:43;;;;;;;2.63;2.43;;;27.10;94.60;;;;;;4972058;28;20503;-77
2022/08/12 14:37:09;;;;;;;3.93;3.10;;;27.20;95.30;;;;;;4968489;28;20490;-78
2022/08/12 14:39:56;;;;;;;2.67;2.47;;;27.10;94.80;;;;;;4975927;28;20450;-80
2022/08/12 14:42:24;;;;;;;2.83;2.63;;;27.20;94.30;;;;;;4973961;28;20557;-77
2022/08/12 14:44:51;;;;;;;2.40;2.30;;;27.40;94.50;;;;;;4975407;28;20497;-78
2022/08/12 14:47:25;;;;;;;2.77;2.57;;;27.70;94.70;;;;;;4975038;28;20444;-79
2022/08/12 14:50:00;;;;;;;2.57;2.40;;;27.90;94.40;;;;;;4975698;28;20434;-77
2022/08/12 14:52:49;;;;;;;2.73;2.50;;;27.60;94.00;;;;;;4969034;28;21011;-77
2022/08/12 14:55:40;;;;;;;2.23;2.13;;;27.40;94.40;;;;;;4969931;28;20545;-77
2022/08/12 14:58:29;;;;;;;3.40;3.10;;;27.40;95.50;;;;;;4976271;28;20527;-78
2022/08/12 15:03:48;;;;;;;2.83;2.63;;;27.00;95.40;;;;;;4966128;28;20438;-78
2022/08/12 15:06:25;;;;;;;4.17;3.87;;;27.00;95.00;;;;;;4973028;28;20445;-79
2022/08/12 15:09:12;;;;;;;2.80;2.60;;;27.00;95.10;;;;;;4968717;28;20433;-78
2022/08/12 15:11:42;;;;;;;2.80;2.60;;;26.90;95.10;;;;;;4966372;28;20820;-78
2022/08/12 15:14:28;;;;;;;2.73;2.53;;;27.00;95.00;;;;;;4971187;28;20952;-78
2022/08/12 15:16:56;;;;;;;2.80;2.60;;;27.20;95.10;;;;;;4962185;28;20531;-77
2022/08/12 15:19:28;;;;;;;3.83;3.53;;;27.30;94.70;;;;;;4970862;28;20872;-78